sensor_id;sensor_type;location;lat;lon;timestamp;pressure;altitude;pressure_sealevel;temperature;humidity
41140;BME280;26881;48.784;9.192;2022-12-29T00:03:08;98170.44;;;8.89;69.65
41140;BME280;26881;48.784;9.192;2022-12-29T00:08:30;98173.34;;;8.99;69.16
41140;BME280;26881;48.784;9.192;2022-12-29T00:14:02;98166.19;;;9.02;69.11
41140;BME280;26881;48.784;9.192;2022-12-29T00:19:46;98148.97;;;9.00;69.11
41140;BME280;26881;48.784;9.192;2022-12-29T00:25:27;98139.19;;;9.03;68.98
41140;BME280;26881;48.784;9.192;2022-12-29T00:31:11;98137.59;;;9.01;69.34
41140;BME280;26881;48.784;9.192;2022-12-29T00:36:52;98132.38;;;9.01;69.69
41140;BME280;26881;48.784;9.192;2022-12-29T00:42:14;98141.50;;;9.08;68.95
41140;BME280;26881;48.784;9.192;2022-12-29T00:47:54;98122.69;;;9.17;68.85
41140;BME280;26881;48.784;9.192;2022-12-29T00:53:16;98119.44;;;9.28;67.48
41140;BME280;26881;48.784;9.192;2022-12-29T00:58:38;98118.28;;;9.32;68.58
41140;BME280;26881;48.784;9.192;2022-12-29T01:04:00;98120.06;;;9.32;68.51
41140;BME280;26881;48.784;9.192;2022-12-29T01:09:25;98127.16;;;9.29;69.05
41140;BME280;26881;48.784;9.192;2022-12-29T01:15:07;98132.84;;;9.36;68.55
41140;BME280;26881;48.784;9.192;2022-12-29T01:20:29;98137.69;;;9.42;68.74
41140;BME280;26881;48.784;9.192;2022-12-29T01:25:51;98140.66;;;9.50;67.92
41140;BME280;26881;48.784;9.192;2022-12-29T01:31:14;98138.97;;;9.64;67.41
41140;BME280;26881;48.784;9.192;2022-12-29T01:36:36;98145.22;;;9.76;66.42
41140;BME280;26881;48.784;9.192;2022-12-29T01:41:58;98131.31;;;9.75;66.34
41140;BME280;26881;48.784;9.192;2022-12-29T01:47:43;98139.69;;;9.80;66.34
41140;BME280;26881;48.784;9.192;2022-12-29T01:53:16;98143.06;;;9.82;66.37
41140;BME280;26881;48.784;9.192;2022-12-29T01:58:41;98140.66;;;9.79;66.59
41140;BME280;26881;48.784;9.192;2022-12-29T02:04:04;98137.16;;;9.79;66.59
41140;BME280;26881;48.784;9.192;2022-12-29T02:09:26;98130.56;;;9.73;66.76
41140;BME280;26881;48.784;9.192;2022-12-29T02:14:50;98124.31;;;9.76;66.67
41140;BME280;26881;48.784;9.192;2022-12-29T02:20:30;98117.84;;;9.81;66.53
41140;BME280;26881;48.784;9.192;2022-12-29T02:43:09;98109.47;;;9.76;67.00
41140;BME280;26881;48.784;9.192;2022-12-29T02:48:46;98096.88;;;9.83;66.54
41140;BME280;26881;48.784;9.192;2022-12-29T02:54:12;98097.63;;;9.85;65.62
41140;BME280;26881;48.784;9.192;2022-12-29T03:00:07;98096.59;;;9.87;65.52
41140;BME280;26881;48.784;9.192;2022-12-29T03:11:13;98097.41;;;10.02;65.32
41140;BME280;26881;48.784;9.192;2022-12-29T03:16:59;98102.34;;;9.92;66.22
41140;BME280;26881;48.784;9.192;2022-12-29T03:22:28;98084.06;;;9.92;66.55
41140;BME280;26881;48.784;9.192;2022-12-29T03:27:55;98082.59;;;9.88;66.50
41140;BME280;26881;48.784;9.192;2022-12-29T03:33:23;98068.28;;;9.94;66.70
41140;BME280;26881;48.784;9.192;2022-12-29T03:38:50;98064.34;;;10.01;66.43
41140;BME280;26881;48.784;9.192;2022-12-29T03:44:15;98067.63;;;10.05;66.55
41140;BME280;26881;48.784;9.192;2022-12-29T03:49:37;98048.16;;;10.09;66.17
41140;BME280;26881;48.784;9.192;2022-12-29T03:54:59;98032.09;;;10.15;66.06
41140;BME280;26881;48.784;9.192;2022-12-29T04:00:21;98043.00;;;10.22;66.55
41140;BME280;26881;48.784;9.192;2022-12-29T04:05:43;98058.09;;;10.31;66.39
41140;BME280;26881;48.784;9.192;2022-12-29T04:11:04;98048.06;;;10.38;65.96
41140;BME280;26881;48.784;9.192;2022-12-29T04:16:26;98041.38;;;10.33;66.21
41140;BME280;26881;48.784;9.192;2022-12-29T04:21:48;98059.34;;;10.38;66.08
41140;BME280;26881;48.784;9.192;2022-12-29T04:27:10;98085.06;;;10.31;67.21
41140;BME280;26881;48.784;9.192;2022-12-29T04:32:31;98082.94;;;10.24;67.57
41140;BME280;26881;48.784;9.192;2022-12-29T04:37:53;98073.31;;;10.24;67.35
41140;BME280;26881;48.784;9.192;2022-12-29T04:43:15;98048.94;;;10.24;67.88
41140;BME280;26881;48.784;9.192;2022-12-29T04:48:38;98063.31;;;10.31;68.35
41140;BME280;26881;48.784;9.192;2022-12-29T04:54:00;98064.38;;;10.28;68.36
41140;BME280;26881;48.784;9.192;2022-12-29T04:59:22;98075.19;;;10.22;69.29
41140;BME280;26881;48.784;9.192;2022-12-29T05:04:44;98076.00;;;10.23;69.87
41140;BME280;26881;48.784;9.192;2022-12-29T05:10:06;98067.81;;;10.29;69.31
41140;BME280;26881;48.784;9.192;2022-12-29T05:15:28;98055.25;;;10.34;68.98
41140;BME280;26881;48.784;9.192;2022-12-29T05:20:50;98061.75;;;10.28;70.23
41140;BME280;26881;48.784;9.192;2022-12-29T05:26:12;98043.88;;;10.35;69.34
41140;BME280;26881;48.784;9.192;2022-12-29T05:31:34;98049.72;;;10.39;69.19
41140;BME280;26881;48.784;9.192;2022-12-29T05:36:57;98065.63;;;10.48;69.39
41140;BME280;26881;48.784;9.192;2022-12-29T05:42:18;98062.72;;;10.53;68.51
41140;BME280;26881;48.784;9.192;2022-12-29T05:47:40;98054.56;;;10.45;69.45
41140;BME280;26881;48.784;9.192;2022-12-29T05:53:02;98054.97;;;10.39;69.96
41140;BME280;26881;48.784;9.192;2022-12-29T05:58:24;98057.41;;;10.54;68.24
41140;BME280;26881;48.784;9.192;2022-12-29T06:03:46;98055.00;;;10.64;68.35
41140;BME280;26881;48.784;9.192;2022-12-29T06:09:10;98021.00;;;10.77;66.66
41140;BME280;26881;48.784;9.192;2022-12-29T06:14:32;98015.66;;;10.79;65.90
41140;BME280;26881;48.784;9.192;2022-12-29T06:19:54;98006.03;;;10.79;66.51
41140;BME280;26881;48.784;9.192;2022-12-29T06:25:16;98015.34;;;10.83;66.20
41140;BME280;26881;48.784;9.192;2022-12-29T06:30:38;98019.63;;;10.84;66.20
41140;BME280;26881;48.784;9.192;2022-12-29T06:36:00;98026.13;;;10.79;65.80
41140;BME280;26881;48.784;9.192;2022-12-29T06:41:21;98030.72;;;10.88;65.01
41140;BME280;26881;48.784;9.192;2022-12-29T06:46:52;98034.59;;;10.82;64.82
41140;BME280;26881;48.784;9.192;2022-12-29T06:52:14;98029.16;;;10.85;64.03
41140;BME280;26881;48.784;9.192;2022-12-29T06:57:35;98022.03;;;10.87;62.80
41140;BME280;26881;48.784;9.192;2022-12-29T07:02:57;98033.13;;;10.91;62.56
41140;BME280;26881;48.784;9.192;2022-12-29T07:08:22;98026.13;;;10.79;63.45
41140;BME280;26881;48.784;9.192;2022-12-29T07:13:43;98038.06;;;10.83;62.52
41140;BME280;26881;48.784;9.192;2022-12-29T07:19:05;98047.78;;;10.81;62.99
41140;BME280;26881;48.784;9.192;2022-12-29T07:24:27;98048.91;;;10.76;63.11
41140;BME280;26881;48.784;9.192;2022-12-29T07:29:49;98047.06;;;10.66;64.10
41140;BME280;26881;48.784;9.192;2022-12-29T07:35:11;98053.59;;;10.46;65.80
41140;BME280;26881;48.784;9.192;2022-12-29T07:40:32;98048.50;;;10.44;66.17
41140;BME280;26881;48.784;9.192;2022-12-29T07:45:54;98048.91;;;10.38;65.79
41140;BME280;26881;48.784;9.192;2022-12-29T07:51:16;98052.13;;;10.42;66.17
41140;BME280;26881;48.784;9.192;2022-12-29T07:56:38;98059.97;;;10.42;66.59
41140;BME280;26881;48.784;9.192;2022-12-29T08:02:00;98049.66;;;10.53;65.72
41140;BME280;26881;48.784;9.192;2022-12-29T08:07:22;98066.59;;;10.60;65.50
41140;BME280;26881;48.784;9.192;2022-12-29T08:12:44;98071.09;;;10.71;65.17
41140;BME280;26881;48.784;9.192;2022-12-29T08:18:05;98079.69;;;10.86;64.28
41140;BME280;26881;48.784;9.192;2022-12-29T08:23:27;98091.41;;;10.80;65.14
41140;BME280;26881;48.784;9.192;2022-12-29T08:28:52;98084.72;;;10.76;65.50
41140;BME280;26881;48.784;9.192;2022-12-29T08:34:13;98078.00;;;10.72;65.77
41140;BME280;26881;48.784;9.192;2022-12-29T08:39:35;98077.38;;;10.68;66.58
41140;BME280;26881;48.784;9.192;2022-12-29T08:44:58;98060.56;;;10.72;66.42
41140;BME280;26881;48.784;9.192;2022-12-29T08:50:20;98072.38;;;10.65;67.13
41140;BME280;26881;48.784;9.192;2022-12-29T08:55:42;98067.25;;;10.64;67.65
41140;BME280;26881;48.784;9.192;2022-12-29T09:01:03;98072.38;;;10.65;67.38
41140;BME280;26881;48.784;9.192;2022-12-29T09:06:25;98081.47;;;10.72;66.30
41140;BME280;26881;48.784;9.192;2022-12-29T09:11:47;98094.44;;;10.74;66.85
41140;BME280;26881;48.784;9.192;2022-12-29T09:17:10;98108.06;;;10.92;65.43
41140;BME280;26881;48.784;9.192;2022-12-29T09:22:50;98112.88;;;10.98;65.74
41140;BME280;26881;48.784;9.192;2022-12-29T09:28:11;98110.06;;;11.01;66.05
41140;BME280;26881;48.784;9.192;2022-12-29T09:33:33;98109.09;;;11.15;64.65
41140;BME280;26881;48.784;9.192;2022-12-29T09:38:55;98121.56;;;11.24;64.78
41140;BME280;26881;48.784;9.192;2022-12-29T09:44:48;98112.66;;;11.27;64.56
41140;BME280;26881;48.784;9.192;2022-12-29T09:55:49;98089.28;;;11.49;64.31
41140;BME280;26881;48.784;9.192;2022-12-29T10:01:23;98101.38;;;11.63;62.31
41140;BME280;26881;48.784;9.192;2022-12-29T10:07:04;98102.31;;;11.62;63.58
41140;BME280;26881;48.784;9.192;2022-12-29T10:24:12;98109.44;;;11.60;64.72
41140;BME280;26881;48.784;9.192;2022-12-29T10:29:39;98114.03;;;11.82;62.70
41140;BME280;26881;48.784;9.192;2022-12-29T10:35:12;98111.72;;;11.77;64.31
41140;BME280;26881;48.784;9.192;2022-12-29T10:46:22;98094.63;;;11.85;64.50
41140;BME280;26881;48.784;9.192;2022-12-29T10:51:46;98099.97;;;11.96;64.44
41140;BME280;26881;48.784;9.192;2022-12-29T10:57:20;98090.81;;;12.01;64.25
41140;BME280;26881;48.784;9.192;2022-12-29T11:03:01;98091.19;;;12.08;63.77
41140;BME280;26881;48.784;9.192;2022-12-29T11:08:33;98097.31;;;12.20;63.03
41140;BME280;26881;48.784;9.192;2022-12-29T11:14:14;98096.56;;;12.31;62.36
41140;BME280;26881;48.784;9.192;2022-12-29T11:19:39;98092.56;;;12.25;62.87
41140;BME280;26881;48.784;9.192;2022-12-29T11:25:10;98102.13;;;12.26;63.41
41140;BME280;26881;48.784;9.192;2022-12-29T11:30:33;98097.00;;;12.25;63.08
41140;BME280;26881;48.784;9.192;2022-12-29T11:36:02;98108.31;;;12.25;63.56
41140;BME280;26881;48.784;9.192;2022-12-29T11:41:29;98117.25;;;12.22;63.17
41140;BME280;26881;48.784;9.192;2022-12-29T11:46:53;98105.09;;;12.21;65.30
41140;BME280;26881;48.784;9.192;2022-12-29T11:52:16;98113.16;;;12.18;68.02
41140;BME280;26881;48.784;9.192;2022-12-29T11:57:41;98115.91;;;12.17;70.04
41140;BME280;26881;48.784;9.192;2022-12-29T12:03:07;98116.78;;;12.05;69.75
41140;BME280;26881;48.784;9.192;2022-12-29T12:08:44;98117.91;;;11.89;72.75
41140;BME280;26881;48.784;9.192;2022-12-29T12:14:40;98105.28;;;11.81;75.81
41140;BME280;26881;48.784;9.192;2022-12-29T12:25:34;98104.69;;;11.78;73.41
41140;BME280;26881;48.784;9.192;2022-12-29T12:31:01;98104.06;;;11.87;71.90
41140;BME280;26881;48.784;9.192;2022-12-29T12:36:40;98100.78;;;11.96;70.86
41140;BME280;26881;48.784;9.192;2022-12-29T12:53:54;98079.69;;;11.98;72.96
41140;BME280;26881;48.784;9.192;2022-12-29T12:59:30;98076.81;;;11.90;74.23
41140;BME280;26881;48.784;9.192;2022-12-29T13:05:25;98066.81;;;11.95;73.43
41140;BME280;26881;48.784;9.192;2022-12-29T13:10:54;98077.94;;;11.98;73.23
41140;BME280;26881;48.784;9.192;2022-12-29T13:22:01;98075.06;;;12.01;74.45
41140;BME280;26881;48.784;9.192;2022-12-29T13:44:51;98069.66;;;11.92;73.49
41140;BME280;26881;48.784;9.192;2022-12-29T13:50:21;98062.53;;;11.94;74.19
41140;BME280;26881;48.784;9.192;2022-12-29T14:01:39;98063.38;;;11.94;74.43
41140;BME280;26881;48.784;9.192;2022-12-29T14:07:15;98062.88;;;11.89;74.86
41140;BME280;26881;48.784;9.192;2022-12-29T14:12:43;98065.88;;;11.96;74.14
41140;BME280;26881;48.784;9.192;2022-12-29T14:23:44;98076.56;;;11.93;74.95
41140;BME280;26881;48.784;9.192;2022-12-29T14:29:41;98079.09;;;11.94;74.76
41140;BME280;26881;48.784;9.192;2022-12-29T14:34:59;98075.50;;;11.95;75.84
41140;BME280;26881;48.784;9.192;2022-12-29T14:40:23;98071.22;;;11.94;75.91
41140;BME280;26881;48.784;9.192;2022-12-29T14:45:54;98080.56;;;11.86;75.02
41140;BME280;26881;48.784;9.192;2022-12-29T14:51:27;98080.06;;;11.80;75.86
41140;BME280;26881;48.784;9.192;2022-12-29T14:56:51;98074.41;;;11.74;76.56
41140;BME280;26881;48.784;9.192;2022-12-29T15:02:20;98072.13;;;11.69;76.69
41140;BME280;26881;48.784;9.192;2022-12-29T15:07:43;98073.41;;;11.64;76.75
41140;BME280;26881;48.784;9.192;2022-12-29T15:13:14;98067.66;;;11.58;76.59
41140;BME280;26881;48.784;9.192;2022-12-29T15:18:36;98062.44;;;11.58;75.37
41140;BME280;26881;48.784;9.192;2022-12-29T15:24:04;98055.59;;;11.56;75.17
41140;BME280;26881;48.784;9.192;2022-12-29T15:29:40;98069.94;;;11.63;74.11
41140;BME280;26881;48.784;9.192;2022-12-29T15:35:22;98074.06;;;11.54;75.15
41140;BME280;26881;48.784;9.192;2022-12-29T15:40:45;98095.13;;;11.53;74.90
41140;BME280;26881;48.784;9.192;2022-12-29T15:46:10;98105.00;;;11.49;74.43
41140;BME280;26881;48.784;9.192;2022-12-29T15:51:38;98128.00;;;11.57;74.88
41140;BME280;26881;48.784;9.192;2022-12-29T15:57:01;98144.53;;;11.70;74.02
41140;BME280;26881;48.784;9.192;2022-12-29T16:02:24;98161.41;;;11.53;76.76
41140;BME280;26881;48.784;9.192;2022-12-29T16:07:58;98157.56;;;11.46;78.63
41140;BME280;26881;48.784;9.192;2022-12-29T16:13:30;98170.47;;;11.24;79.36
41140;BME280;26881;48.784;9.192;2022-12-29T16:19:04;98169.31;;;11.15;81.19
41140;BME280;26881;48.784;9.192;2022-12-29T16:24:31;98166.13;;;10.97;82.41
41140;BME280;26881;48.784;9.192;2022-12-29T16:29:54;98178.47;;;10.82;84.53
41140;BME280;26881;48.784;9.192;2022-12-29T16:35:21;98175.94;;;10.68;85.98
41140;BME280;26881;48.784;9.192;2022-12-29T16:41:00;98182.69;;;10.58;85.99
41140;BME280;26881;48.784;9.192;2022-12-29T16:46:27;98188.66;;;10.60;85.55
41140;BME280;26881;48.784;9.192;2022-12-29T16:51:51;98190.44;;;10.59;86.18
41140;BME280;26881;48.784;9.192;2022-12-29T16:57:21;98199.72;;;10.50;87.99
41140;BME280;26881;48.784;9.192;2022-12-29T17:02:43;98209.09;;;10.40;91.28
41140;BME280;26881;48.784;9.192;2022-12-29T17:08:39;98213.22;;;10.30;93.45
41140;BME280;26881;48.784;9.192;2022-12-29T17:14:01;98212.19;;;10.32;94.56
41140;BME280;26881;48.784;9.192;2022-12-29T17:19:31;98221.72;;;10.33;93.28
41140;BME280;26881;48.784;9.192;2022-12-29T17:24:55;98219.66;;;10.24;94.30
41140;BME280;26881;48.784;9.192;2022-12-29T17:30:20;98233.59;;;10.10;96.97
41140;BME280;26881;48.784;9.192;2022-12-29T17:35:47;98224.63;;;10.15;97.39
41140;BME280;26881;48.784;9.192;2022-12-29T17:41:15;98227.53;;;10.10;97.63
41140;BME280;26881;48.784;9.192;2022-12-29T17:46:37;98237.44;;;10.05;98.84
41140;BME280;26881;48.784;9.192;2022-12-29T17:51:59;98236.69;;;10.03;98.79
41140;BME280;26881;48.784;9.192;2022-12-29T17:57:21;98226.50;;;10.12;96.64
41140;BME280;26881;48.784;9.192;2022-12-29T18:02:43;98238.47;;;10.02;98.63
41140;BME280;26881;48.784;9.192;2022-12-29T18:08:07;98240.06;;;10.05;99.99
41140;BME280;26881;48.784;9.192;2022-12-29T18:13:30;98229.59;;;10.05;99.63
41140;BME280;26881;48.784;9.192;2022-12-29T18:19:06;98227.72;;;10.07;97.18
41140;BME280;26881;48.784;9.192;2022-12-29T18:24:29;98231.72;;;10.12;96.26
41140;BME280;26881;48.784;9.192;2022-12-29T18:29:51;98243.28;;;10.08;95.61
41140;BME280;26881;48.784;9.192;2022-12-29T18:35:21;98238.72;;;10.12;96.17
41140;BME280;26881;48.784;9.192;2022-12-29T18:40:47;98257.31;;;10.07;96.24
41140;BME280;26881;48.784;9.192;2022-12-29T18:46:10;98238.00;;;9.96;95.90
41140;BME280;26881;48.784;9.192;2022-12-29T18:51:34;98243.97;;;9.83;98.13
41140;BME280;26881;48.784;9.192;2022-12-29T18:56:56;98241.34;;;9.83;97.72
41140;BME280;26881;48.784;9.192;2022-12-29T19:02:18;98262.44;;;9.66;99.37
41140;BME280;26881;48.784;9.192;2022-12-29T19:07:40;98260.41;;;9.71;99.23
41140;BME280;26881;48.784;9.192;2022-12-29T19:13:02;98260.59;;;9.68;98.11
41140;BME280;26881;48.784;9.192;2022-12-29T19:18:26;98261.78;;;9.62;99.88
41140;BME280;26881;48.784;9.192;2022-12-29T19:24:08;98267.66;;;9.52;99.23
41140;BME280;26881;48.784;9.192;2022-12-29T19:29:29;98265.81;;;9.54;98.03
41140;BME280;26881;48.784;9.192;2022-12-29T19:34:51;98266.78;;;9.37;99.74
41140;BME280;26881;48.784;9.192;2022-12-29T19:40:16;98266.06;;;9.35;100.00
41140;BME280;26881;48.784;9.192;2022-12-29T19:45:40;98261.84;;;9.32;100.00
41140;BME280;26881;48.784;9.192;2022-12-29T19:51:07;98259.31;;;9.16;100.00
41140;BME280;26881;48.784;9.192;2022-12-29T19:56:30;98256.09;;;9.11;100.00
41140;BME280;26881;48.784;9.192;2022-12-29T20:01:51;98262.00;;;9.15;100.00
41140;BME280;26881;48.784;9.192;2022-12-29T20:07:14;98261.81;;;9.18;100.00
41140;BME280;26881;48.784;9.192;2022-12-29T20:12:38;98259.38;;;9.15;100.00
41140;BME280;26881;48.784;9.192;2022-12-29T20:18:00;98267.84;;;9.18;100.00
41140;BME280;26881;48.784;9.192;2022-12-29T20:23:37;98278.13;;;9.21;100.00
41140;BME280;26881;48.784;9.192;2022-12-29T20:28:59;98278.97;;;9.22;100.00
41140;BME280;26881;48.784;9.192;2022-12-29T20:34:21;98292.22;;;9.19;99.00
41140;BME280;26881;48.784;9.192;2022-12-29T20:39:43;98299.00;;;8.91;100.00
41140;BME280;26881;48.784;9.192;2022-12-29T20:45:05;98302.94;;;8.98;100.00
41140;BME280;26881;48.784;9.192;2022-12-29T20:50:27;98309.06;;;8.97;100.00
41140;BME280;26881;48.784;9.192;2022-12-29T20:55:49;98320.22;;;9.15;100.00
41140;BME280;26881;48.784;9.192;2022-12-29T21:01:14;98323.16;;;9.25;96.53
41140;BME280;26881;48.784;9.192;2022-12-29T21:06:36;98323.19;;;9.39;96.83
41140;BME280;26881;48.784;9.192;2022-12-29T21:11:58;98338.81;;;9.25;97.35
41140;BME280;26881;48.784;9.192;2022-12-29T21:17:20;98335.66;;;9.04;99.81
41140;BME280;26881;48.784;9.192;2022-12-29T21:22:42;98336.66;;;9.01;100.00
41140;BME280;26881;48.784;9.192;2022-12-29T21:28:08;98335.50;;;9.07;100.00
41140;BME280;26881;48.784;9.192;2022-12-29T21:33:32;98343.47;;;9.04;100.00
41140;BME280;26881;48.784;9.192;2022-12-29T21:38:55;98335.81;;;9.01;100.00
41140;BME280;26881;48.784;9.192;2022-12-29T21:44:17;98343.72;;;8.99;100.00
41140;BME280;26881;48.784;9.192;2022-12-29T21:49:57;98341.34;;;9.11;98.37
41140;BME280;26881;48.784;9.192;2022-12-29T21:55:19;98320.66;;;9.07;97.32
41140;BME280;26881;48.784;9.192;2022-12-29T22:00:41;98327.06;;;9.02;96.50
41140;BME280;26881;48.784;9.192;2022-12-29T22:06:21;98300.50;;;8.95;96.51
41140;BME280;26881;48.784;9.192;2022-12-29T22:12:01;98336.41;;;8.90;97.61
41140;BME280;26881;48.784;9.192;2022-12-29T22:17:46;98351.97;;;9.07;95.10
41140;BME280;26881;48.784;9.192;2022-12-29T22:23:09;98353.91;;;9.04;93.64
41140;BME280;26881;48.784;9.192;2022-12-29T22:28:34;98369.22;;;8.94;93.45
41140;BME280;26881;48.784;9.192;2022-12-29T22:34:00;98368.41;;;8.94;92.97
41140;BME280;26881;48.784;9.192;2022-12-29T22:39:22;98386.16;;;8.71;92.80
41140;BME280;26881;48.784;9.192;2022-12-29T22:44:44;98407.19;;;8.68;93.90
41140;BME280;26881;48.784;9.192;2022-12-29T22:50:06;98417.78;;;8.65;94.65
41140;BME280;26881;48.784;9.192;2022-12-29T22:55:28;98436.63;;;8.37;96.62
41140;BME280;26881;48.784;9.192;2022-12-29T23:00:49;98424.81;;;8.47;95.03
41140;BME280;26881;48.784;9.192;2022-12-29T23:06:13;98439.25;;;8.53;94.35
41140;BME280;26881;48.784;9.192;2022-12-29T23:11:35;98449.16;;;8.46;94.07
41140;BME280;26881;48.784;9.192;2022-12-29T23:16:56;98448.94;;;8.51;95.30
41140;BME280;26881;48.784;9.192;2022-12-29T23:22:19;98458.75;;;8.46;94.67
41140;BME280;26881;48.784;9.192;2022-12-29T23:27:41;98459.13;;;8.38;95.39
41140;BME280;26881;48.784;9.192;2022-12-29T23:33:02;98477.38;;;8.38;95.52
41140;BME280;26881;48.784;9.192;2022-12-29T23:38:24;98468.50;;;8.42;94.20
41140;BME280;26881;48.784;9.192;2022-12-29T23:43:47;98484.91;;;8.44;94.88
41140;BME280;26881;48.784;9.192;2022-12-29T23:49:09;98482.75;;;8.35;95.96
41140;BME280;26881;48.784;9.192;2022-12-29T23:54:31;98481.75;;;8.37;95.63
41140;BME280;26881;48.784;9.192;2022-12-29T23:59:53;98476.53;;;8.37;95.05
